createdAt,value
2023-02-11T00:00:57.686Z,81.18
2023-02-11T00:04:01.804Z,81.86
2023-02-11T00:07:04.304Z,81.45
2023-02-11T00:10:10.393Z,81.23
2023-02-11T00:13:12.896Z,81.09
2023-02-11T00:16:18.759Z,81.98
2023-02-11T00:19:21.727Z,81.61
2023-02-11T00:22:24.400Z,81.85
2023-02-11T00:25:26.998Z,81.76
2023-02-11T00:28:29.804Z,81.92
2023-02-11T00:31:33.001Z,81.79
2023-02-11T00:34:36.813Z,82.12
2023-02-11T00:37:39.423Z,82.42
2023-02-11T00:40:42.039Z,82.32
2023-02-11T00:43:44.730Z,81.44
2023-02-11T00:46:47.368Z,81.15
2023-02-11T00:49:49.868Z,81.38
2023-02-11T00:52:52.406Z,81.36
2023-02-11T00:55:54.957Z,81.17
2023-02-11T00:58:57.766Z,81.63
2023-02-11T01:02:00.880Z,81.11
2023-02-11T01:05:04.360Z,80.68
2023-02-11T01:08:08.565Z,81.24
2023-02-11T01:11:17.287Z,81.14
2023-02-11T01:14:20.861Z,81.82
2023-02-11T01:17:25.748Z,81.59
2023-02-11T01:20:29.699Z,80.72
2023-02-11T01:23:32.580Z,80.64
2023-02-11T01:26:35.152Z,80.37
2023-02-11T01:29:37.745Z,80.67
2023-02-11T01:32:40.670Z,81.31
2023-02-11T01:35:44.930Z,81.15
2023-02-11T01:38:47.530Z,81.07
2023-02-11T01:41:50.046Z,80.99
2023-02-11T01:44:54.714Z,81.03
2023-02-11T01:47:57.351Z,80.83
2023-02-11T01:51:32.963Z,81.25
2023-02-11T01:54:59.871Z,81.09
2023-02-11T01:58:05.254Z,82.12
2023-02-11T02:01:08.899Z,81.15
2023-02-11T02:04:12.588Z,81.48
2023-02-11T02:07:25.074Z,81.83
2023-02-11T02:10:28.991Z,82.31
2023-02-11T02:13:33.578Z,82.02
2023-02-11T02:16:37.833Z,82.99
2023-02-11T02:20:03.939Z,82.48
2023-02-11T02:23:18.550Z,82.70
2023-02-11T02:26:52.426Z,82.61
2023-02-11T02:29:54.834Z,82.24
2023-02-11T02:33:21.844Z,82.74
2023-02-11T02:36:38.304Z,83.06
2023-02-11T02:39:41.086Z,82.54
2023-02-11T02:42:44.472Z,82.79
2023-02-11T02:45:46.980Z,83.49
2023-02-11T02:48:52.797Z,83.00
2023-02-11T02:52:28.540Z,82.67
2023-02-11T02:55:45.341Z,82.22
2023-02-11T02:59:25.417Z,82.71
2023-02-11T03:02:43.949Z,83.25
2023-02-11T03:05:55.067Z,83.43
2023-02-11T03:09:06.392Z,83.02
2023-02-11T03:12:10.662Z,83.22
2023-02-11T03:15:15.247Z,82.98
2023-02-11T03:18:20.893Z,82.83
2023-02-11T03:21:25.240Z,83.43
2023-02-11T03:24:31.920Z,83.54
2023-02-11T03:27:49.367Z,82.75
2023-02-11T03:31:10.742Z,83.27
2023-02-11T03:34:21.598Z,82.66
2023-02-11T03:37:37.688Z,83.31
2023-02-11T03:40:43.676Z,83.32
2023-02-11T03:43:52.963Z,83.08
2023-02-11T03:46:56.035Z,83.89
2023-02-11T03:50:00.772Z,84.26
2023-02-11T03:53:04.860Z,83.81
2023-02-11T03:56:13.142Z,83.65
2023-02-11T03:59:15.703Z,83.81
2023-02-11T04:02:19.000Z,84.09
2023-02-11T04:05:21.470Z,83.63
2023-02-11T04:08:24.191Z,84.02
2023-02-11T04:11:26.652Z,84.14
2023-02-11T04:14:29.059Z,84.13
2023-02-11T04:17:31.560Z,84.04
2023-02-11T04:20:34.067Z,83.98
2023-02-11T04:23:36.942Z,84.31
2023-02-11T04:26:39.402Z,84.19
2023-02-11T04:29:42.231Z,83.83
2023-02-11T04:32:44.799Z,85.15
2023-02-11T04:35:47.342Z,84.15
2023-02-11T04:38:49.773Z,84.40
2023-02-11T04:41:52.218Z,84.70
2023-02-11T04:44:54.697Z,83.26
2023-02-11T04:47:57.203Z,83.71
2023-02-11T04:50:59.842Z,83.59
2023-02-11T04:54:02.342Z,83.76
2023-02-11T04:57:05.409Z,83.74
2023-02-11T05:00:10.040Z,83.57
2023-02-11T05:03:13.134Z,83.57
2023-02-11T05:06:16.165Z,82.93
2023-02-11T05:09:18.658Z,82.74
2023-02-11T05:12:21.885Z,82.68
2023-02-11T05:15:24.565Z,83.23
2023-02-11T05:18:27.061Z,83.54
2023-02-11T05:21:29.542Z,83.36
2023-02-11T05:24:32.652Z,83.18
2023-02-11T05:27:35.348Z,83.26
2023-02-11T05:30:38.040Z,83.99
2023-02-11T05:33:41.320Z,84.59
2023-02-11T05:36:43.851Z,83.89
2023-02-11T05:39:46.401Z,83.70
2023-02-11T05:42:49.001Z,83.52
2023-02-11T05:45:52.406Z,83.73
2023-02-11T05:48:56.679Z,84.12
2023-02-11T05:51:59.148Z,83.80
2023-02-11T05:55:01.614Z,83.66
2023-02-11T05:58:04.563Z,83.52
2023-02-11T06:01:07.161Z,83.88
2023-02-11T06:04:09.801Z,83.67
2023-02-11T06:07:12.303Z,82.91
2023-02-11T06:10:14.847Z,83.30
2023-02-11T06:13:18.722Z,82.68
2023-02-11T06:16:21.339Z,83.35
2023-02-11T06:19:24.285Z,83.39
2023-02-11T06:22:27.540Z,83.63
2023-02-11T06:25:30.024Z,83.69
2023-02-11T06:28:33.361Z,83.18
2023-02-11T06:31:37.990Z,82.60
2023-02-11T06:34:40.708Z,82.81
2023-02-11T06:37:43.228Z,82.95
2023-02-11T06:40:49.717Z,81.89
2023-02-11T06:43:53.214Z,82.12
2023-02-11T06:46:55.784Z,82.42
2023-02-11T06:49:58.292Z,81.61
2023-02-11T06:53:01.012Z,81.55
2023-02-11T06:56:08.646Z,81.79
2023-02-11T06:59:16.344Z,81.33
2023-02-11T07:02:20.992Z,80.79
2023-02-11T07:05:23.891Z,81.02
2023-02-11T07:08:27.003Z,80.65
2023-02-11T07:11:30.107Z,80.10
2023-02-11T07:14:33.463Z,78.75
2023-02-11T07:17:36.486Z,77.99
2023-02-11T07:20:39.015Z,77.77
2023-02-11T07:23:41.914Z,77.23
2023-02-11T07:26:44.911Z,75.86
2023-02-11T07:29:48.689Z,75.12
2023-02-11T07:32:51.298Z,74.25
2023-02-11T07:35:53.886Z,73.39
2023-02-11T07:38:56.567Z,72.79
2023-02-11T07:42:00.171Z,71.99
2023-02-11T07:45:03.468Z,71.17
2023-02-11T07:48:06.233Z,70.97
2023-02-11T07:51:14.348Z,70.54
2023-02-11T07:54:17.426Z,70.41
2023-02-11T07:57:19.966Z,69.65
2023-02-11T08:00:22.545Z,68.93
2023-02-11T08:03:25.053Z,68.06
2023-02-11T08:06:34.866Z,67.44
2023-02-11T08:09:37.564Z,67.69
2023-02-11T08:12:41.856Z,67.72
2023-02-11T08:15:44.320Z,67.77
2023-02-11T08:18:47.898Z,69.06
2023-02-11T08:21:50.624Z,69.49
2023-02-11T08:24:53.051Z,70.28
2023-02-11T08:27:55.525Z,70.24
2023-02-11T08:30:58.058Z,70.35
2023-02-11T08:34:02.361Z,69.83
2023-02-11T08:37:09.042Z,69.48
2023-02-11T08:40:11.774Z,68.96
2023-02-11T08:43:14.462Z,68.88
2023-02-11T08:46:19.151Z,68.44
2023-02-11T08:49:22.872Z,68.41
2023-02-11T08:52:25.552Z,67.51
2023-02-11T08:55:28.085Z,67.77
2023-02-11T08:58:30.914Z,66.06
2023-02-11T09:01:33.968Z,65.94
2023-02-11T09:04:36.554Z,64.72
2023-02-11T09:07:39.760Z,64.50
2023-02-11T09:10:42.856Z,63.98
2023-02-11T09:13:46.570Z,63.40
2023-02-11T09:16:49.974Z,62.49
2023-02-11T09:19:52.616Z,62.36
2023-02-11T09:22:57.654Z,61.88
2023-02-11T09:26:12.447Z,61.60
2023-02-11T09:29:15.158Z,60.64
2023-02-11T09:32:18.453Z,59.02
2023-02-11T09:35:20.999Z,57.01
2023-02-11T09:38:23.721Z,56.28
2023-02-11T09:41:46.414Z,55.28
2023-02-11T09:44:49.159Z,54.64
2023-02-11T09:47:56.453Z,54.18
2023-02-11T09:51:03.361Z,54.48
2023-02-11T09:54:15.447Z,54.25
2023-02-11T09:57:28.193Z,54.09
2023-02-11T10:00:40.232Z,54.19
2023-02-11T10:03:49.590Z,53.95
2023-02-11T10:07:02.250Z,54.41
2023-02-11T10:10:10.641Z,54.52
2023-02-11T10:13:22.455Z,54.68
2023-02-11T10:16:43.204Z,54.11
2023-02-11T10:20:19.650Z,54.53
2023-02-11T10:23:34.063Z,54.44
2023-02-11T10:26:39.704Z,54.31
2023-02-11T10:29:52.563Z,54.11
2023-02-11T10:33:03.237Z,54.38
2023-02-11T10:36:06.281Z,54.65
2023-02-11T10:39:16.438Z,53.72
2023-02-11T10:42:19.020Z,53.22
2023-02-11T10:45:33.322Z,52.92
2023-02-11T10:48:49.535Z,52.21
2023-02-11T10:52:13.720Z,52.84
2023-02-11T10:55:22.180Z,52.47
2023-02-11T10:58:28.676Z,52.48
2023-02-11T11:01:50.186Z,52.07
2023-02-11T11:04:57.678Z,51.90
2023-02-11T11:08:04.179Z,52.14
2023-02-11T11:11:09.956Z,51.91
2023-02-11T11:14:19.586Z,51.64
2023-02-11T11:17:22.246Z,51.12
2023-02-11T11:20:30.514Z,50.38
2023-02-11T11:23:36.753Z,48.82
2023-02-11T11:26:46.374Z,47.29
2023-02-11T11:29:51.970Z,46.41
2023-02-11T11:32:55.122Z,45.33
2023-02-11T11:36:06.656Z,44.71
2023-02-11T11:39:35.106Z,45.61
2023-02-11T11:42:39.395Z,44.95
2023-02-11T11:45:56.803Z,45.52
2023-02-11T11:49:13.240Z,45.39
2023-02-11T11:52:40.395Z,45.32
2023-02-11T11:55:53.617Z,44.74
2023-02-11T11:58:56.904Z,44.94
2023-02-11T12:02:23.404Z,44.46
2023-02-11T12:05:33.978Z,44.77
2023-02-11T12:08:51.435Z,43.96
2023-02-11T12:12:01.556Z,44.51
2023-02-11T12:15:22.504Z,44.07
2023-02-11T12:18:47.613Z,44.29
2023-02-11T12:22:24.134Z,43.71
2023-02-11T12:25:45.563Z,44.10
2023-02-11T12:29:02.878Z,43.78
2023-02-11T12:32:15.746Z,43.56
2023-02-11T12:35:31.141Z,42.95
2023-02-11T12:39:02.179Z,43.27
2023-02-11T12:42:57.136Z,43.30
2023-02-11T12:46:27.144Z,43.00
2023-02-11T12:50:01.957Z,41.68
2023-02-11T12:53:41.842Z,41.07
2023-02-11T12:56:44.257Z,41.30
2023-02-11T13:00:07.032Z,40.91
2023-02-11T13:03:19.176Z,40.71
2023-02-11T13:07:05.568Z,39.70
2023-02-11T13:10:14.253Z,37.42
2023-02-11T13:13:26.257Z,38.05
2023-02-11T13:16:47.969Z,37.57
2023-02-11T13:20:01.500Z,37.38
2023-02-11T13:23:13.123Z,38.33
2023-02-11T13:26:39.499Z,38.79
2023-02-11T13:30:11.393Z,39.24
2023-02-11T13:33:17.507Z,39.42
2023-02-11T13:36:26.818Z,39.86
2023-02-11T13:39:29.406Z,39.91
2023-02-11T13:42:46.725Z,39.61
2023-02-11T13:45:51.614Z,39.72
2023-02-11T13:48:55.328Z,39.81
2023-02-11T13:52:00.204Z,39.68
2023-02-11T13:55:14.726Z,39.31
2023-02-11T13:58:32.993Z,39.09
2023-02-11T14:01:40.359Z,39.86
2023-02-11T14:05:37.780Z,38.04
2023-02-11T14:09:07.576Z,36.37
2023-02-11T14:12:23.871Z,35.96
2023-02-11T14:15:27.728Z,34.93
2023-02-11T14:18:45.190Z,34.23
2023-02-11T14:21:47.754Z,34.25
2023-02-11T14:24:52.345Z,34.36
2023-02-11T14:28:01.589Z,35.67
2023-02-11T14:31:11.457Z,35.77
2023-02-11T14:34:51.173Z,35.18
2023-02-11T14:37:59.509Z,36.51
2023-02-11T14:41:19.860Z,37.31
2023-02-11T14:44:26.906Z,37.73
2023-02-11T14:47:38.453Z,37.49
2023-02-11T14:50:46.161Z,36.51
2023-02-11T14:53:55.652Z,36.84
2023-02-11T14:57:16.039Z,36.83
2023-02-11T15:00:23.600Z,36.76
2023-02-11T15:03:37.096Z,36.34
2023-02-11T15:06:42.731Z,37.59
2023-02-11T15:09:49.981Z,39.08
2023-02-11T15:12:53.570Z,39.45
2023-02-11T15:16:06.595Z,39.66
2023-02-11T15:19:21.312Z,40.19
2023-02-11T15:22:29.377Z,40.08
2023-02-11T15:25:34.330Z,40.80
2023-02-11T15:28:37.583Z,41.45
2023-02-11T15:31:40.314Z,42.41
2023-02-11T15:34:44.887Z,42.95
2023-02-11T15:37:50.320Z,43.19
2023-02-11T15:41:00.798Z,43.91
2023-02-11T15:44:03.821Z,44.20
2023-02-11T15:47:10.915Z,44.23
2023-02-11T15:50:26.090Z,44.76
2023-02-11T15:53:33.593Z,45.03
2023-02-11T15:56:43.101Z,44.99
2023-02-11T15:59:49.960Z,45.54
2023-02-11T16:02:53.466Z,45.71
2023-02-11T16:05:56.626Z,46.33
2023-02-11T16:09:03.985Z,46.33
2023-02-11T16:12:23.544Z,46.81
2023-02-11T16:15:52.498Z,47.50
2023-02-11T16:19:04.801Z,47.57
2023-02-11T16:22:11.857Z,48.32
2023-02-11T16:25:19.669Z,48.49
2023-02-11T16:28:22.602Z,48.13
2023-02-11T16:31:33.565Z,48.05
2023-02-11T16:34:36.825Z,48.46
2023-02-11T16:37:39.322Z,48.39
2023-02-11T16:40:44.442Z,48.85
2023-02-11T16:43:49.216Z,49.19
2023-02-11T16:46:53.683Z,49.92
2023-02-11T16:49:57.577Z,49.45
2023-02-11T16:53:02.164Z,49.85
2023-02-11T16:56:05.124Z,50.06
2023-02-11T16:59:09.236Z,49.98
2023-02-11T17:02:25.321Z,50.11
2023-02-11T17:05:27.932Z,49.82
2023-02-11T17:08:30.672Z,49.40
2023-02-11T17:11:33.451Z,49.34
2023-02-11T17:14:35.924Z,49.37
2023-02-11T17:17:38.615Z,48.97
2023-02-11T17:20:41.835Z,49.14
2023-02-11T17:23:46.114Z,49.41
2023-02-11T17:26:50.393Z,49.14
2023-02-11T17:29:53.423Z,48.93
2023-02-11T17:32:56.231Z,49.09
2023-02-11T17:35:59.045Z,49.01
2023-02-11T17:39:03.058Z,49.31
2023-02-11T17:42:06.501Z,49.37
2023-02-11T17:45:10.005Z,49.30
2023-02-11T17:48:12.500Z,49.92
2023-02-11T17:51:23.166Z,49.13
2023-02-11T17:54:26.110Z,48.92
2023-02-11T17:57:28.888Z,49.01
2023-02-11T18:00:32.150Z,49.02
2023-02-11T18:03:35.014Z,49.35
2023-02-11T18:06:37.878Z,49.14
2023-02-11T18:09:41.542Z,49.06
2023-02-11T18:12:43.949Z,49.13
2023-02-11T18:15:46.709Z,49.80
2023-02-11T18:18:50.161Z,49.51
2023-02-11T18:21:54.048Z,49.46
2023-02-11T18:24:56.793Z,49.87
2023-02-11T18:27:59.646Z,49.61
2023-02-11T18:31:02.858Z,49.62
2023-02-11T18:34:07.894Z,50.26
2023-02-11T18:37:13.355Z,49.98
2023-02-11T18:40:16.164Z,50.20
2023-02-11T18:43:21.778Z,50.48
2023-02-11T18:46:24.627Z,50.23
2023-02-11T18:49:27.424Z,49.92
2023-02-11T18:52:31.558Z,50.09
2023-02-11T18:55:34.137Z,50.51
2023-02-11T18:58:38.062Z,50.55
2023-02-11T19:01:43.360Z,50.59
2023-02-11T19:04:46.893Z,50.91
2023-02-11T19:07:49.659Z,51.08
2023-02-11T19:10:52.515Z,50.77
2023-02-11T19:13:54.979Z,51.34
2023-02-11T19:16:59.711Z,51.41
2023-02-11T19:20:05.982Z,51.50
2023-02-11T19:23:09.577Z,51.09
2023-02-11T19:26:13.377Z,51.34
2023-02-11T19:29:16.824Z,50.73
2023-02-11T19:32:19.982Z,51.11
2023-02-11T19:35:23.332Z,50.92
2023-02-11T19:38:27.144Z,51.28
2023-02-11T19:41:33.590Z,50.92
2023-02-11T19:44:36.485Z,51.37
2023-02-11T19:47:39.280Z,51.34
2023-02-11T19:50:42.092Z,51.23
2023-02-11T19:53:45.957Z,51.04
2023-02-11T19:56:49.034Z,51.29
2023-02-11T19:59:54.845Z,51.74
2023-02-11T20:02:57.894Z,52.08
2023-02-11T20:06:04.495Z,52.18
2023-02-11T20:09:11.851Z,52.95
2023-02-11T20:12:15.715Z,53.58
2023-02-11T20:15:18.348Z,54.39
2023-02-11T20:18:21.600Z,55.06
2023-02-11T20:21:30.541Z,55.42
2023-02-11T20:24:33.347Z,56.75
2023-02-11T20:27:36.283Z,58.26
2023-02-11T20:30:39.576Z,58.78
2023-02-11T20:33:42.144Z,58.89
2023-02-11T20:36:51.697Z,59.69
2023-02-11T20:39:55.840Z,59.71
2023-02-11T20:42:58.708Z,59.87
2023-02-11T20:46:05.707Z,60.82
2023-02-11T20:49:11.943Z,61.70
2023-02-11T20:52:18.010Z,62.23
2023-02-11T20:55:20.763Z,62.26
2023-02-11T20:58:23.324Z,62.83
2023-02-11T21:01:29.892Z,62.66
2023-02-11T21:04:35.657Z,63.37
2023-02-11T21:07:39.239Z,63.03
2023-02-11T21:10:43.857Z,63.57
2023-02-11T21:13:46.952Z,62.86
2023-02-11T21:16:50.468Z,63.78
2023-02-11T21:19:53.283Z,64.01
2023-02-11T21:22:56.061Z,64.26
2023-02-11T21:25:58.762Z,64.12
2023-02-11T21:29:06.049Z,64.65
2023-02-11T21:32:09.280Z,64.71
2023-02-11T21:35:12.098Z,65.20
2023-02-11T21:38:15.565Z,65.46
2023-02-11T21:41:19.927Z,65.67
2023-02-11T21:44:22.527Z,66.28
2023-02-11T21:47:25.224Z,67.21
2023-02-11T21:50:27.951Z,67.72
2023-02-11T21:53:30.716Z,68.07
2023-02-11T21:56:35.118Z,68.72
2023-02-11T21:59:37.635Z,69.14
2023-02-11T22:02:40.436Z,69.10
2023-02-11T22:05:43.210Z,69.47
2023-02-11T22:08:45.724Z,69.78
2023-02-11T22:11:49.339Z,70.29
2023-02-11T22:14:51.895Z,70.28
2023-02-11T22:17:54.307Z,70.08
2023-02-11T22:21:17.581Z,70.36
2023-02-11T22:24:20.138Z,70.76
2023-02-11T22:27:23.086Z,71.16
2023-02-11T22:30:25.728Z,71.06
2023-02-11T22:33:28.876Z,70.97
2023-02-11T22:36:37.986Z,71.39
2023-02-11T22:39:42.070Z,71.81
2023-02-11T22:42:44.802Z,71.60
2023-02-11T22:45:47.447Z,71.92
2023-02-11T22:48:50.540Z,72.16
2023-02-11T22:51:53.705Z,72.47
2023-02-11T22:54:56.326Z,72.64
2023-02-11T22:57:58.858Z,72.78
2023-02-11T23:01:01.789Z,73.06
2023-02-11T23:04:06.416Z,72.84
2023-02-11T23:07:08.834Z,73.32
2023-02-11T23:10:11.465Z,72.97
2023-02-11T23:13:13.916Z,72.79
2023-02-11T23:16:21.151Z,72.68
2023-02-11T23:19:26.539Z,72.73
2023-02-11T23:22:29.032Z,73.37
2023-02-11T23:25:32.701Z,73.26
2023-02-11T23:28:36.292Z,73.21
2023-02-11T23:31:40.886Z,73.94
2023-02-11T23:34:43.436Z,74.17
2023-02-11T23:37:45.896Z,74.21
2023-02-11T23:40:48.383Z,74.08
2023-02-11T23:43:52.924Z,74.59
2023-02-11T23:46:55.380Z,74.61
2023-02-11T23:49:59.616Z,75.03
2023-02-11T23:53:02.212Z,75.33
2023-02-11T23:56:14.974Z,75.18
2023-02-11T23:59:17.823Z,75.31
